Time;durP1;ratioP1;P1;durP2;ratioP2;P2;SDS_P1;SDS_P2;PMS_P1;PMS_P2;Temp;Humidity;BMP_temperature;BMP_pressure;BME280_temperature;BME280_humidity;BME280_pressure;Samples;Min_cycle;Max_cycle;Signal;HPM_P1;HPM_P2
2023/01/20 00:01:33;;;;;;;16.25;10.93;;;9.50;99.90;;;;;;4959930;28;20035;-92
2023/01/20 00:04:00;;;;;;;18.67;10.52;;;9.50;99.90;;;;;;4959597;28;20031;-92
2023/01/20 06:51:28;;;;;;;8.57;7.38;;;7.20;99.90;;;;;;5967543;23;19965;-90
2023/01/20 06:53:55;;;;;;;6.82;6.18;;;7.30;99.90;;;;;;4922286;29;20032;-89
2023/01/20 06:56:22;;;;;;;6.35;5.95;;;7.40;99.90;;;;;;4922401;29;20082;-89
2023/01/20 06:58:49;;;;;;;6.78;6.18;;;7.70;99.90;;;;;;4922235;29;20044;-90
2023/01/20 07:01:28;;;;;;;7.55;6.80;;;8.00;99.90;;;;;;4924317;29;20028;-89
2023/01/20 07:03:55;;;;;;;7.20;6.70;;;8.40;99.90;;;;;;4922590;29;20023;-88
2023/01/20 07:06:34;;;;;;;8.10;7.40;;;8.80;99.90;;;;;;4921654;29;20032;-91
2023/01/20 07:09:01;;;;;;;9.25;8.75;;;9.20;99.90;;;;;;4922324;29;20063;-90
2023/01/20 07:11:30;;;;;;;11.30;10.70;;;9.50;99.90;;;;;;4922058;29;20023;-89
2023/01/20 07:13:57;;;;;;;12.88;12.13;;;9.70;99.90;;;;;;4937793;29;20031;-91
2023/01/20 07:16:24;;;;;;;15.32;14.10;;;9.50;99.90;;;;;;4921942;29;20059;-90
2023/01/20 07:18:52;;;;;;;15.10;14.20;;;9.40;99.90;;;;;;4921831;29;20044;-89
2023/01/20 07:21:20;;;;;;;14.82;13.68;;;9.30;99.90;;;;;;4921793;29;20028;-93
2023/01/20 07:23:47;;;;;;;16.05;14.85;;;9.40;99.90;;;;;;4922135;29;20401;-90
2023/01/20 07:26:19;;;;;;;16.23;15.25;;;9.60;99.90;;;;;;4921763;29;20508;-90
2023/01/20 07:28:47;;;;;;;18.48;17.02;;;9.80;99.90;;;;;;4921878;29;20028;-92
2023/01/20 07:31:18;;;;;;;18.83;17.45;;;10.00;99.90;;;;;;4921656;29;20115;-91
2023/01/20 07:33:45;;;;;;;19.40;18.00;;;10.30;99.90;;;;;;4937234;29;20031;-90
2023/01/20 07:36:14;;;;;;;18.63;17.42;;;10.60;99.90;;;;;;4937384;29;20054;-91
2023/01/20 07:38:41;;;;;;;15.75;14.60;;;10.80;99.90;;;;;;4937551;29;20039;-91
2023/01/20 07:41:14;;;;;;;15.57;14.65;;;10.90;99.90;;;;;;4937282;29;20389;-91
2023/01/20 07:43:46;;;;;;;14.70;13.82;;;10.90;99.90;;;;;;4937267;29;20027;-91
2023/01/20 07:46:14;;;;;;;14.85;13.75;;;10.90;99.90;;;;;;4937332;29;20046;-91
2023/01/20 07:48:41;;;;;;;15.85;14.52;;;10.90;99.90;;;;;;4937022;29;20035;-90
2023/01/20 07:51:11;;;;;;;15.00;14.07;;;10.80;99.90;;;;;;4925565;29;20523;-89
2023/01/20 07:53:40;;;;;;;15.60;14.43;;;10.70;99.90;;;;;;4921392;29;20501;-90
2023/01/20 07:56:19;;;;;;;16.17;15.07;;;10.60;99.90;;;;;;4921571;29;20038;-89
2023/01/20 07:58:48;;;;;;;16.95;15.70;;;10.50;99.90;;;;;;4921249;29;20054;-89
2023/01/20 08:01:23;;;;;;;17.08;15.63;;;10.40;99.90;;;;;;4921232;29;20028;-89
2023/01/20 08:03:50;;;;;;;16.25;15.05;;;10.30;99.90;;;;;;4920855;29;20035;-88
2023/01/20 08:06:21;;;;;;;15.50;14.60;;;10.40;99.90;;;;;;4921122;29;20032;-90
2023/01/20 08:08:48;;;;;;;16.02;15.10;;;10.50;99.90;;;;;;4920989;29;20396;-89
2023/01/20 08:11:17;;;;;;;16.40;15.40;;;10.50;99.90;;;;;;4920910;29;20028;-89
2023/01/20 08:13:44;;;;;;;15.38;14.27;;;10.40;99.90;;;;;;4920969;29;20111;-89
2023/01/20 08:16:17;;;;;;;16.00;15.00;;;10.60;99.90;;;;;;4920876;29;20036;-90
2023/01/20 08:18:46;;;;;;;14.73;13.82;;;10.90;99.90;;;;;;4936543;29;20047;-89
2023/01/20 08:21:39;;;;;;;14.43;13.43;;;11.10;99.90;;;;;;4920789;29;20070;-90
2023/01/20 08:24:06;;;;;;;13.55;12.65;;;11.40;99.90;;;;;;4934163;29;20091;-88
2023/01/20 08:26:33;;;;;;;13.95;12.55;;;11.60;99.90;;;;;;4932530;29;20032;-90
2023/01/20 08:29:09;;;;;;;14.15;13.13;;;11.70;99.90;;;;;;4935089;29;20031;-89
2023/01/20 08:31:36;;;;;;;14.45;13.50;;;11.90;99.90;;;;;;4939782;29;20039;-90
2023/01/20 08:34:06;;;;;;;15.00;13.90;;;11.90;99.90;;;;;;4939520;29;20027;-90
2023/01/20 08:36:35;;;;;;;15.32;14.35;;;12.10;99.90;;;;;;4939509;29;20035;-90
2023/01/20 08:39:05;;;;;;;14.30;13.27;;;12.30;99.90;;;;;;4939649;29;20118;-89
2023/01/20 08:41:35;;;;;;;14.32;13.40;;;12.30;99.90;;;;;;4955573;28;20091;-91
2023/01/20 08:44:05;;;;;;;14.57;13.63;;;12.30;99.90;;;;;;4939357;29;20039;-89
2023/01/20 08:46:32;;;;;;;14.15;13.27;;;12.40;99.90;;;;;;4954887;28;20431;-91
2023/01/20 08:48:59;;;;;;;14.00;13.05;;;12.40;99.90;;;;;;4939758;29;20400;-88
2023/01/20 08:51:29;;;;;;;15.23;14.13;;;12.30;99.90;;;;;;4955534;29;20035;-90
2023/01/20 08:53:56;;;;;;;15.63;14.25;;;12.30;99.90;;;;;;4955116;29;20054;-91
2023/01/20 08:56:23;;;;;;;16.20;14.60;;;12.20;99.90;;;;;;4939363;29;20031;-89
2023/01/20 08:58:51;;;;;;;15.30;14.18;;;12.20;99.90;;;;;;4939247;29;20035;-89
2023/01/20 09:01:21;;;;;;;15.05;14.15;;;12.30;99.90;;;;;;4939350;29;20485;-90
2023/01/20 09:03:48;;;;;;;14.88;13.80;;;12.40;99.90;;;;;;4955225;28;20182;-90
2023/01/20 09:06:16;;;;;;;14.65;13.90;;;12.40;99.90;;;;;;4939110;29;20083;-89
2023/01/20 09:08:43;;;;;;;14.20;13.40;;;12.50;99.90;;;;;;4955382;28;20087;-90
2023/01/20 09:11:20;;;;;;;14.80;13.90;;;12.50;99.90;;;;;;4939196;29;20397;-88
2023/01/20 09:13:47;;;;;;;14.82;13.82;;;12.60;99.90;;;;;;4955048;28;20050;-90
2023/01/20 09:16:17;;;;;;;14.63;13.63;;;12.70;99.90;;;;;;4939029;29;20027;-91
2023/01/20 09:18:44;;;;;;;14.40;13.48;;;12.80;99.90;;;;;;4940261;29;20400;-90
2023/01/20 09:21:14;;;;;;;14.20;13.45;;;12.70;99.90;;;;;;4938965;29;20023;-90
2023/01/20 09:23:42;;;;;;;15.10;14.00;;;12.70;99.90;;;;;;4939041;29;20046;-91
2023/01/20 09:26:09;;;;;;;15.45;14.18;;;12.80;99.90;;;;;;4939059;29;20445;-93
2023/01/20 09:28:36;;;;;;;16.20;15.00;;;13.00;99.90;;;;;;4955034;29;20035;-92
2023/01/20 09:31:06;;;;;;;14.60;13.60;;;13.10;99.90;;;;;;4939033;29;20031;-89
2023/01/20 09:33:36;;;;;;;14.98;14.07;;;13.30;99.90;;;;;;4955019;28;20110;-89
2023/01/20 09:36:05;;;;;;;15.88;14.40;;;13.30;99.90;;;;;;4938900;29;20031;-90
2023/01/20 09:44:21;;;;;;;15.38;14.38;;;12.90;99.90;;;;;;4935604;29;20032;-90
2023/01/20 09:53:02;;;;;;;14.65;13.68;;;12.20;99.90;;;;;;4935525;29;20064;-91
2023/01/20 09:55:52;;;;;;;16.13;14.68;;;12.00;99.90;;;;;;4919841;29;20035;-90
2023/01/20 09:58:28;;;;;;;16.02;14.90;;;11.90;99.90;;;;;;4921906;29;20631;-90
2023/01/20 10:01:20;;;;;;;16.17;14.75;;;11.90;99.90;;;;;;4923445;29;20075;-90
2023/01/20 10:03:59;;;;;;;15.00;14.10;;;11.90;99.90;;;;;;4923033;29;20095;-90
2023/01/20 10:06:40;;;;;;;16.48;15.10;;;11.90;99.90;;;;;;4939077;29;20071;-89
2023/01/20 10:09:21;;;;;;;16.15;14.90;;;11.80;99.90;;;;;;4923345;29;20446;-89
2023/01/20 10:11:53;;;;;;;15.35;14.25;;;12.20;99.90;;;;;;4923103;29;20038;-90
2023/01/20 10:14:37;;;;;;;18.63;16.65;;;12.70;99.90;;;;;;4923913;29;20023;-89
2023/01/20 10:17:09;;;;;;;17.38;16.05;;;12.80;99.90;;;;;;4922945;29;20039;-90
2023/01/20 10:20:07;;;;;;;16.20;15.13;;;12.70;99.90;;;;;;4938984;29;20129;-90
2023/01/20 10:22:40;;;;;;;19.73;17.67;;;12.50;99.90;;;;;;4917980;29;20067;-92
2023/01/20 10:25:21;;;;;;;16.75;15.70;;;12.40;99.90;;;;;;4923218;29;20508;-89
2023/01/20 10:28:09;;;;;;;16.50;15.45;;;12.30;99.90;;;;;;4923514;29;20046;-90
2023/01/20 10:30:37;;;;;;;16.38;15.23;;;12.40;99.90;;;;;;4922780;29;20038;-90
2023/01/20 10:33:09;;;;;;;16.20;15.10;;;12.70;99.90;;;;;;4922741;29;20032;-93
2023/01/20 10:35:43;;;;;;;17.52;16.33;;;12.80;99.90;;;;;;4922834;29;20032;-90
2023/01/20 10:38:37;;;;;;;16.88;15.85;;;12.90;99.90;;;;;;4923376;29;20046;-90
2023/01/20 10:41:26;;;;;;;16.98;15.93;;;13.10;99.90;;;;;;4939712;29;20506;-91
2023/01/20 10:43:55;;;;;;;17.70;16.45;;;13.10;99.90;;;;;;4922522;29;20067;-91
2023/01/20 10:46:54;;;;;;;17.08;15.85;;;13.20;99.90;;;;;;4922727;29;20027;-89
2023/01/20 10:49:36;;;;;;;15.98;14.90;;;13.20;99.90;;;;;;4922438;29;20032;-92
2023/01/20 10:52:27;;;;;;;16.52;15.25;;;13.20;99.90;;;;;;4922227;29;20050;-90
2023/01/20 10:55:14;;;;;;;16.63;15.40;;;13.20;99.90;;;;;;4922439;29;20512;-90
2023/01/20 10:57:41;;;;;;;16.92;15.80;;;13.20;99.90;;;;;;4922234;29;20481;-90
2023/01/20 11:00:22;;;;;;;17.17;15.88;;;13.20;99.90;;;;;;4922239;29;20036;-91
2023/01/20 11:02:51;;;;;;;17.02;15.93;;;13.30;99.90;;;;;;4922220;29;20032;-90
2023/01/20 11:05:23;;;;;;;17.00;15.80;;;13.20;99.90;;;;;;4922226;29;20024;-89
2023/01/20 11:07:53;;;;;;;17.65;16.30;;;13.10;99.90;;;;;;4930457;29;20051;-90
2023/01/20 11:10:31;;;;;;;17.38;15.70;;;13.00;99.90;;;;;;4940592;29;20023;-90
2023/01/20 11:13:02;;;;;;;17.30;16.00;;;12.80;99.90;;;;;;4941025;29;20077;-91
2023/01/20 11:15:34;;;;;;;16.98;15.98;;;13.00;99.90;;;;;;4941122;29;20031;-88
2023/01/20 11:18:16;;;;;;;16.98;15.88;;;13.40;99.90;;;;;;4941015;29;20043;-89
2023/01/20 11:20:48;;;;;;;17.80;16.45;;;13.70;99.90;;;;;;4940936;29;20027;-89
2023/01/20 11:23:37;;;;;;;17.10;16.10;;;13.60;99.90;;;;;;4940937;29;20031;-89
2023/01/20 11:26:20;;;;;;;17.13;15.73;;;13.50;99.90;;;;;;4940691;29;20031;-89
2023/01/20 11:28:49;;;;;;;16.70;15.57;;;13.60;99.90;;;;;;4940690;29;20131;-88
2023/01/20 11:31:17;;;;;;;17.20;16.17;;;13.30;99.90;;;;;;4940653;29;20122;-90
2023/01/20 11:33:59;;;;;;;17.10;15.90;;;13.10;99.90;;;;;;4956562;29;20122;-89
2023/01/20 11:36:26;;;;;;;16.65;15.68;;;13.10;99.90;;;;;;4940629;29;20496;-88
2023/01/20 11:38:56;;;;;;;16.67;15.57;;;13.10;99.90;;;;;;4940528;29;20515;-92
2023/01/20 11:41:29;;;;;;;16.77;15.73;;;13.20;99.90;;;;;;4940507;29;20037;-89
2023/01/20 11:44:00;;;;;;;16.83;15.82;;;13.10;99.90;;;;;;4940467;29;20038;-90
2023/01/20 11:46:36;;;;;;;17.50;16.50;;;13.20;99.90;;;;;;4940315;29;20046;-91
2023/01/20 11:49:36;;;;;;;16.98;16.08;;;13.30;99.90;;;;;;4940396;29;20058;-91
2023/01/20 11:52:19;;;;;;;17.85;16.65;;;13.60;99.90;;;;;;4849184;29;20108;-92
2023/01/20 11:54:46;;;;;;;18.20;16.50;;;13.70;99.90;;;;;;4849046;29;20039;-91
2023/01/20 11:57:16;;;;;;;17.70;16.40;;;13.60;99.90;;;;;;4848842;29;20052;-90
2023/01/20 11:59:50;;;;;;;18.50;17.08;;;13.70;99.90;;;;;;4864409;29;20033;-90
2023/01/20 12:02:24;;;;;;;17.17;16.30;;;13.50;99.90;;;;;;4849240;29;20535;-92
2023/01/20 12:05:09;;;;;;;16.98;16.08;;;13.50;99.90;;;;;;4864565;29;20037;-89
2023/01/20 12:07:45;;;;;;;17.67;16.63;;;13.40;99.90;;;;;;4848589;29;20116;-89
2023/01/20 12:10:29;;;;;;;18.63;16.83;;;13.20;99.90;;;;;;4849071;29;20065;-92
2023/01/20 12:13:11;;;;;;;17.33;16.00;;;13.10;99.90;;;;;;4849541;29;20506;-90
2023/01/20 12:15:44;;;;;;;18.48;17.10;;;13.10;99.90;;;;;;4853381;29;20051;-90
2023/01/20 12:18:36;;;;;;;19.00;17.27;;;13.20;99.90;;;;;;4848605;29;20044;-93
2023/01/20 12:21:16;;;;;;;17.92;16.70;;;13.20;99.90;;;;;;4847729;29;20391;-91
2023/01/20 12:24:02;;;;;;;18.65;17.15;;;13.10;99.90;;;;;;4848899;29;20642;-89
2023/01/20 12:26:33;;;;;;;18.27;17.08;;;13.10;99.90;;;;;;4848586;29;20033;-92
2023/01/20 12:29:48;;;;;;;17.55;16.23;;;13.00;99.90;;;;;;4933856;29;20102;-89
2023/01/20 12:32:15;;;;;;;17.90;16.80;;;12.80;99.90;;;;;;4849559;29;20033;-90
2023/01/20 12:34:42;;;;;;;18.20;16.92;;;12.70;99.90;;;;;;4860850;29;20030;-91
2023/01/20 12:37:27;;;;;;;18.80;17.60;;;12.80;99.90;;;;;;4863550;29;20037;-88
2023/01/20 12:40:21;;;;;;;18.23;17.13;;;12.80;99.90;;;;;;4848667;29;20049;-90
2023/01/20 12:43:11;;;;;;;17.08;16.05;;;12.80;99.90;;;;;;4848420;29;20033;-91
2023/01/20 12:46:23;;;;;;;18.20;17.10;;;12.80;99.90;;;;;;4848293;29;20410;-90
2023/01/20 12:49:13;;;;;;;17.40;16.50;;;12.90;99.90;;;;;;4847466;29;20044;-92
2023/01/20 12:52:01;;;;;;;17.52;16.42;;;12.80;99.90;;;;;;4847637;29;20052;-91
2023/01/20 12:54:58;;;;;;;17.48;16.38;;;13.00;99.90;;;;;;4848115;29;20048;-91
2023/01/20 12:57:37;;;;;;;17.30;16.30;;;13.10;99.90;;;;;;4863461;29;20423;-91
2023/01/20 13:00:22;;;;;;;19.08;17.60;;;13.00;99.90;;;;;;4848170;29;20047;-91
2023/01/20 13:03:29;;;;;;;17.83;16.77;;;13.00;99.90;;;;;;4863599;29;20479;-93
2023/01/20 13:06:01;;;;;;;18.02;16.83;;;13.00;99.90;;;;;;4878160;29;20134;-91
2023/01/20 13:08:53;;;;;;;17.50;16.60;;;12.80;99.90;;;;;;4949537;29;20035;-92
2023/01/20 13:11:39;;;;;;;17.85;16.67;;;12.80;99.90;;;;;;4936112;29;20079;-91
2023/01/20 13:14:39;;;;;;;18.30;17.10;;;12.70;99.90;;;;;;4936026;29;20031;-94
2023/01/20 13:17:36;;;;;;;17.73;16.58;;;12.60;99.90;;;;;;4920093;29;20039;-92
2023/01/20 13:20:03;;;;;;;18.08;16.83;;;12.50;99.90;;;;;;4919749;29;20048;-91
2023/01/20 13:22:30;;;;;;;17.88;16.80;;;12.50;99.90;;;;;;4935867;29;20023;-91
2023/01/20 13:25:03;;;;;;;17.17;16.27;;;12.50;99.90;;;;;;4935923;29;20035;-92
2023/01/20 13:27:37;;;;;;;17.73;16.27;;;12.50;99.90;;;;;;4936090;29;20042;-94
2023/01/20 13:30:06;;;;;;;17.75;16.75;;;12.50;99.90;;;;;;4937278;29;20028;-91
2023/01/20 13:32:47;;;;;;;18.02;16.80;;;12.50;99.90;;;;;;4936940;29;20438;-95
2023/01/20 13:35:17;;;;;;;19.13;17.73;;;12.40;99.90;;;;;;4939783;29;20051;-92
2023/01/20 13:38:17;;;;;;;18.65;17.30;;;12.50;99.90;;;;;;4932512;29;20061;-93
2023/01/20 13:41:04;;;;;;;18.42;17.20;;;12.40;99.90;;;;;;4942774;29;20040;-92
2023/01/20 13:43:45;;;;;;;17.95;16.85;;;12.40;99.90;;;;;;4942086;29;20098;-95
2023/01/20 13:46:15;;;;;;;17.98;16.70;;;12.40;99.90;;;;;;4940782;29;20063;-92
2023/01/20 13:49:12;;;;;;;17.08;15.98;;;12.30;99.90;;;;;;4924744;29;20437;-95
2023/01/20 13:51:43;;;;;;;18.00;16.88;;;12.30;99.90;;;;;;4939683;29;20047;-94
2023/01/20 13:54:29;;;;;;;17.52;16.33;;;12.30;99.90;;;;;;4923524;29;20122;-94
2023/01/20 13:57:32;;;;;;;17.48;16.33;;;12.30;99.90;;;;;;4939333;29;20126;-93
2023/01/20 13:59:59;;;;;;;18.80;17.15;;;12.30;99.90;;;;;;4885592;29;20372;-91
2023/01/20 14:02:40;;;;;;;19.98;17.23;;;12.30;99.90;;;;;;4901933;29;20099;-93
2023/01/20 14:05:26;;;;;;;19.02;17.63;;;12.30;99.90;;;;;;4904619;29;20517;-92
2023/01/20 14:07:55;;;;;;;18.30;16.88;;;12.20;99.90;;;;;;4901399;29;20033;-95
2023/01/20 14:10:23;;;;;;;18.40;16.92;;;12.20;99.90;;;;;;4900821;29;20032;-93
2023/01/20 14:12:50;;;;;;;18.92;17.40;;;12.10;99.90;;;;;;4901019;29;20519;-93
2023/01/20 14:15:26;;;;;;;18.50;16.77;;;12.00;99.90;;;;;;4900289;29;20044;-93
2023/01/20 14:17:56;;;;;;;18.40;17.10;;;11.90;99.90;;;;;;4900285;29;20040;-92
2023/01/20 14:20:25;;;;;;;18.00;16.63;;;11.80;99.90;;;;;;4901712;29;20085;-93
2023/01/20 14:22:52;;;;;;;17.88;16.20;;;11.70;99.90;;;;;;4907285;29;20043;-91
2023/01/20 14:25:25;;;;;;;17.75;16.38;;;11.70;99.90;;;;;;4903156;29;20078;-91
2023/01/20 14:27:52;;;;;;;16.55;15.35;;;11.60;99.90;;;;;;4900344;29;20052;-93
2023/01/20 14:30:21;;;;;;;16.48;15.48;;;11.50;99.90;;;;;;4900958;29;20549;-90
2023/01/20 14:32:49;;;;;;;16.20;15.00;;;11.40;99.90;;;;;;4884634;29;20040;-94
2023/01/20 14:35:19;;;;;;;16.63;15.40;;;11.30;99.90;;;;;;4916638;29;20032;-91
2023/01/20 14:37:51;;;;;;;15.20;14.27;;;11.30;99.90;;;;;;4938962;29;20047;-93
2023/01/20 14:40:32;;;;;;;15.40;14.50;;;11.30;99.90;;;;;;4938648;29;20032;-93
2023/01/20 14:43:12;;;;;;;16.45;14.80;;;11.20;99.90;;;;;;4938568;29;20027;-92
2023/01/20 14:45:46;;;;;;;15.40;14.35;;;11.20;99.90;;;;;;4947653;29;20031;-92
2023/01/20 14:48:14;;;;;;;15.15;13.88;;;11.10;99.90;;;;;;4941584;29;20094;-91
2023/01/20 14:50:45;;;;;;;15.45;14.20;;;11.00;99.90;;;;;;4941550;29;20054;-92
2023/01/20 14:53:14;;;;;;;14.50;13.57;;;11.00;99.90;;;;;;4938536;29;20047;-92
2023/01/20 14:56:00;;;;;;;15.63;14.38;;;10.90;99.90;;;;;;4942622;29;20023;-92
2023/01/20 14:58:29;;;;;;;15.45;14.20;;;10.80;99.90;;;;;;4941327;29;20051;-93
2023/01/20 15:01:03;;;;;;;18.42;16.67;;;10.70;99.90;;;;;;4941499;29;20027;-94
2023/01/20 15:03:30;;;;;;;23.17;19.73;;;10.60;99.90;;;;;;4938102;29;20032;-92
2023/01/20 15:06:12;;;;;;;22.05;18.83;;;10.50;99.90;;;;;;4938152;29;20276;-91
2023/01/20 15:08:48;;;;;;;20.55;18.50;;;10.50;99.90;;;;;;4922185;29;20122;-91
2023/01/20 15:11:17;;;;;;;19.00;17.05;;;10.50;99.90;;;;;;4937889;29;20028;-92
2023/01/20 15:13:59;;;;;;;17.08;15.57;;;10.50;99.90;;;;;;4922001;29;20055;-93
2023/01/20 15:16:37;;;;;;;15.98;14.65;;;10.40;99.90;;;;;;4937949;29;20449;-92
2023/01/20 15:19:17;;;;;;;15.75;14.55;;;10.40;99.90;;;;;;4922059;29;20062;-93
2023/01/20 15:21:54;;;;;;;15.55;14.35;;;10.50;99.90;;;;;;4938022;29;20118;-92
2023/01/20 15:24:30;;;;;;;14.63;13.52;;;10.40;99.90;;;;;;4937768;29;20048;-91
2023/01/20 15:26:59;;;;;;;15.85;14.85;;;10.30;99.90;;;;;;4937624;29;20038;-92
2023/01/20 15:29:28;;;;;;;15.63;14.55;;;10.40;99.90;;;;;;4937649;29;20040;-92
2023/01/20 15:31:57;;;;;;;17.55;14.77;;;10.40;99.90;;;;;;4921867;29;20042;-92
2023/01/20 15:34:26;;;;;;;15.68;14.57;;;10.40;99.90;;;;;;4937618;29;20034;-92
2023/01/20 15:36:59;;;;;;;17.75;14.90;;;10.40;99.90;;;;;;4921503;29;20043;-92
2023/01/20 15:39:33;;;;;;;16.42;15.30;;;10.40;99.90;;;;;;4937423;29;20130;-91
2023/01/20 15:42:01;;;;;;;17.38;15.70;;;10.40;99.90;;;;;;4937657;29;20031;-92
2023/01/20 15:44:28;;;;;;;17.25;15.80;;;10.40;99.90;;;;;;4937378;29;20039;-93
2023/01/20 15:46:54;;;;;;;17.70;15.90;;;10.40;99.90;;;;;;4937159;29;20020;-93
2023/01/20 15:49:21;;;;;;;17.70;16.35;;;10.40;99.90;;;;;;4937191;29;20034;-91
2023/01/20 15:51:47;;;;;;;18.73;16.98;;;10.40;99.90;;;;;;4937036;29;20048;-93
2023/01/20 15:54:13;;;;;;;22.95;18.05;;;10.40;99.90;;;;;;4937181;29;20122;-91
2023/01/20 15:56:41;;;;;;;18.95;17.25;;;10.30;99.90;;;;;;4936905;29;20032;-91
2023/01/20 15:59:17;;;;;;;19.83;17.63;;;10.30;99.90;;;;;;4937102;29;20106;-92
2023/01/20 16:01:48;;;;;;;19.27;17.60;;;10.20;99.90;;;;;;4921524;29;20078;-92
2023/01/20 16:04:15;;;;;;;20.70;18.63;;;10.20;99.90;;;;;;4936789;29;20044;-91
2023/01/20 16:06:42;;;;;;;20.77;18.75;;;10.20;99.90;;;;;;4921142;29;20035;-91
2023/01/20 16:09:24;;;;;;;20.88;18.67;;;10.10;99.90;;;;;;4937025;29;20094;-91
2023/01/20 16:11:53;;;;;;;24.45;19.58;;;10.00;99.90;;;;;;4937993;29;20083;-90
2023/01/20 16:14:22;;;;;;;25.58;20.40;;;10.00;99.90;;;;;;4921765;29;20039;-90
2023/01/20 16:16:48;;;;;;;23.10;20.63;;;10.10;99.90;;;;;;4936736;29;20477;-91
2023/01/20 16:19:16;;;;;;;22.83;20.52;;;10.10;99.90;;;;;;4936773;29;20141;-93
2023/01/20 16:21:42;;;;;;;22.90;20.30;;;10.20;99.90;;;;;;4937145;29;20023;-90
2023/01/20 16:24:09;;;;;;;22.83;20.55;;;10.20;99.90;;;;;;4936602;29;20036;-91
2023/01/20 16:26:35;;;;;;;22.80;20.45;;;10.30;99.90;;;;;;4936547;29;20024;-90
2023/01/20 16:29:03;;;;;;;22.63;20.27;;;10.30;99.90;;;;;;4936587;29;20039;-94
2023/01/20 16:31:32;;;;;;;25.67;18.75;;;10.40;99.90;;;;;;4936496;29;20095;-93
2023/01/20 16:33:58;;;;;;;20.38;18.42;;;10.40;99.90;;;;;;4937343;29;20100;-93
2023/01/20 16:36:25;;;;;;;20.40;18.50;;;10.50;99.90;;;;;;4939154;29;20027;-94
2023/01/20 16:38:52;;;;;;;19.05;17.27;;;10.60;99.90;;;;;;4960477;23;20922;-92
2023/01/20 16:41:29;;;;;;;18.35;16.25;;;10.60;99.90;;;;;;4947561;28;20546;-93
2023/01/20 16:43:57;;;;;;;18.13;16.25;;;10.60;99.90;;;;;;4942062;29;20035;-93
2023/01/20 16:46:32;;;;;;;17.73;16.10;;;10.50;99.90;;;;;;4955631;29;20032;-92
2023/01/20 16:49:06;;;;;;;22.17;15.93;;;10.40;99.90;;;;;;4912680;29;20083;-93
2023/01/20 16:51:56;;;;;;;16.00;14.30;;;10.40;99.90;;;;;;4923765;29;20097;-92
2023/01/20 16:54:29;;;;;;;13.25;11.93;;;10.30;99.90;;;;;;4969639;23;20142;-92
2023/01/20 16:56:56;;;;;;;15.50;11.02;;;10.20;99.90;;;;;;4955426;29;20038;-93
2023/01/20 17:08:39;;;;;;;20.88;11.18;;;10.00;99.90;;;;;;4938559;29;20062;-92
2023/01/20 17:11:09;;;;;;;14.52;12.00;;;9.90;99.90;;;;;;4919284;29;20048;-91
2023/01/20 17:19:24;;;;;;;17.33;12.40;;;9.70;99.90;;;;;;5557625;23;20077;-92
2023/01/20 17:22:26;;;;;;;;;;;;;;;;;;;;;
2023/01/20 17:28:47;;;;;;;22.45;12.60;;;9.50;99.90;;;;;;5106057;23;20142;-92
2023/01/20 17:31:14;;;;;;;16.98;12.15;;;9.20;99.90;;;;;;4921832;29;20048;-92
2023/01/20 17:33:51;;;;;;;18.38;11.00;;;9.10;99.90;;;;;;4903225;29;20087;-91
2023/01/20 17:38:57;;;;;;;21.33;11.90;;;8.90;99.90;;;;;;4993807;28;21544;-91
2023/01/20 17:41:38;;;;;;;20.15;10.82;;;8.90;99.90;;;;;;4987188;28;20026;-92
2023/01/20 17:44:22;;;;;;;15.60;10.60;;;8.90;99.90;;;;;;4947053;29;20035;-94
2023/01/20 18:07:21;;;;;;;17.63;9.60;;;9.00;99.90;;;;;;4982643;28;20054;-92
2023/01/20 18:09:47;;;;;;;22.45;10.63;;;9.10;99.90;;;;;;4958014;28;20066;-91
2023/01/20 18:12:14;;;;;;;13.32;9.48;;;9.20;99.90;;;;;;4957831;28;20027;-93
2023/01/20 18:14:41;;;;;;;15.48;10.10;;;9.20;99.90;;;;;;4959106;28;20381;-92
2023/01/20 18:17:08;;;;;;;15.68;8.68;;;9.30;99.90;;;;;;4973913;28;20034;-92
2023/01/20 18:19:34;;;;;;;14.75;8.57;;;9.50;99.90;;;;;;4960466;28;20387;-91
2023/01/20 18:22:05;;;;;;;22.65;9.27;;;9.50;99.90;;;;;;4977718;28;20472;-92
2023/01/20 18:24:33;;;;;;;37.20;16.95;;;9.60;99.90;;;;;;4961593;28;20037;-91
2023/01/20 18:27:02;;;;;;;21.42;11.95;;;9.70;99.90;;;;;;4977471;28;20033;-90
2023/01/20 18:29:29;;;;;;;29.48;12.82;;;9.40;99.90;;;;;;4961140;28;20089;-92
2023/01/20 18:31:57;;;;;;;30.48;12.30;;;9.40;99.90;;;;;;4977160;28;20118;-92
2023/01/20 18:34:23;;;;;;;20.08;11.00;;;9.40;99.90;;;;;;4961010;28;20038;-91
2023/01/20 18:36:50;;;;;;;12.77;10.60;;;9.40;99.90;;;;;;4976887;28;20405;-91
2023/01/20 18:39:20;;;;;;;17.65;9.73;;;9.50;99.90;;;;;;4960998;28;20031;-90
2023/01/20 18:41:47;;;;;;;22.23;11.25;;;9.60;99.90;;;;;;4964221;28;20117;-90
2023/01/20 18:44:15;;;;;;;17.65;10.50;;;9.50;99.90;;;;;;4967686;28;20562;-91
2023/01/20 18:46:41;;;;;;;20.92;11.20;;;9.50;99.90;;;;;;4969915;28;20037;-92
2023/01/20 18:49:13;;;;;;;21.83;11.32;;;9.50;99.90;;;;;;4970991;28;20027;-93
2023/01/20 18:51:52;;;;;;;24.48;14.20;;;9.50;99.90;;;;;;4970804;28;20030;-92
2023/01/20 18:54:25;;;;;;;29.17;12.73;;;9.50;99.90;;;;;;4969720;28;20042;-91
2023/01/20 18:56:52;;;;;;;25.10;14.43;;;9.60;99.90;;;;;;4970198;28;20027;-93
2023/01/20 18:59:19;;;;;;;20.88;12.23;;;9.70;99.90;;;;;;4968908;28;20519;-92
2023/01/20 19:01:49;;;;;;;42.85;13.80;;;9.80;99.90;;;;;;4969975;28;20051;-91
2023/01/20 19:04:22;;;;;;;32.15;13.18;;;9.80;99.90;;;;;;4970831;28;20034;-92
2023/01/20 19:06:58;;;;;;;32.42;12.50;;;9.80;99.90;;;;;;4970626;28;20063;-94
2023/01/20 19:09:26;;;;;;;33.38;13.88;;;9.90;99.90;;;;;;4965756;28;20054;-93
2023/01/20 19:12:10;;;;;;;32.70;13.75;;;9.90;99.90;;;;;;4960883;28;20082;-94
2023/01/20 19:14:38;;;;;;;29.17;12.95;;;10.00;99.90;;;;;;4961409;28;20190;-91
2023/01/20 19:17:05;;;;;;;26.25;12.68;;;10.10;99.90;;;;;;4960303;28;20423;-92
2023/01/20 19:19:34;;;;;;;27.05;15.95;;;10.10;99.90;;;;;;4960353;28;20125;-92
2023/01/20 19:22:01;;;;;;;29.98;15.07;;;10.10;99.90;;;;;;4976257;28;20030;-93
2023/01/20 19:24:27;;;;;;;25.35;12.27;;;10.10;99.90;;;;;;4960190;28;20122;-91
2023/01/20 19:27:02;;;;;;;28.52;11.00;;;10.00;99.90;;;;;;4960285;28;20432;-92
2023/01/20 19:29:32;;;;;;;26.52;13.63;;;10.00;99.90;;;;;;4976644;28;20072;-91
2023/01/20 19:32:02;;;;;;;45.45;18.65;;;10.00;99.90;;;;;;4997657;23;20061;-94
2023/01/20 19:34:29;;;;;;;25.50;11.32;;;10.00;99.90;;;;;;4959638;28;20034;-90
2023/01/20 19:36:56;;;;;;;33.05;11.50;;;10.00;99.90;;;;;;4975887;28;20034;-92
2023/01/20 19:39:23;;;;;;;39.40;16.55;;;10.00;99.90;;;;;;4959644;28;20488;-91
2023/01/20 19:41:49;;;;;;;31.60;11.57;;;10.00;99.90;;;;;;4975895;28;20105;-90
2023/01/20 19:44:16;;;;;;;41.03;12.70;;;10.00;99.90;;;;;;4959512;28;20037;-92
2023/01/20 19:46:43;;;;;;;35.85;12.82;;;10.10;99.90;;;;;;4959840;28;20022;-93
2023/01/20 19:49:10;;;;;;;27.85;12.93;;;10.10;99.90;;;;;;4960315;28;20031;-92
2023/01/20 19:51:37;;;;;;;34.08;12.35;;;10.10;99.90;;;;;;4961346;28;20027;-91
2023/01/20 19:54:04;;;;;;;44.15;16.80;;;10.10;99.90;;;;;;4978387;28;20054;-89
2023/01/20 19:56:33;;;;;;;49.25;16.63;;;10.10;99.90;;;;;;4960547;28;20027;-88
2023/01/20 19:59:01;;;;;;;29.88;15.15;;;10.20;99.90;;;;;;4975339;28;20039;-89
2023/01/20 20:01:32;;;;;;;36.30;12.40;;;10.30;99.90;;;;;;4959177;28;20057;-89
2023/01/20 20:04:05;;;;;;;35.30;12.63;;;10.30;99.90;;;;;;4959086;28;20034;-89
2023/01/20 20:06:33;;;;;;;34.30;13.77;;;10.50;99.90;;;;;;4959166;28;20472;-92
2023/01/20 20:09:03;;;;;;;30.55;13.82;;;10.60;99.90;;;;;;4961155;28;20023;-92
2023/01/20 20:11:31;;;;;;;34.50;13.43;;;10.50;99.90;;;;;;4959534;28;20033;-93
2023/01/20 20:14:00;;;;;;;30.45;12.95;;;10.60;99.90;;;;;;4959066;28;20026;-93
2023/01/20 20:16:30;;;;;;;40.20;12.93;;;10.60;99.90;;;;;;4958842;28;20034;-92
2023/01/20 20:18:58;;;;;;;44.05;13.30;;;10.70;99.90;;;;;;4959070;28;20412;-92
2023/01/20 20:21:26;;;;;;;45.65;13.68;;;10.80;99.90;;;;;;4959108;28;20023;-91
2023/01/20 20:23:55;;;;;;;46.72;13.07;;;10.80;99.90;;;;;;4967895;28;20035;-94
2023/01/20 20:26:28;;;;;;;28.30;13.15;;;11.00;99.90;;;;;;4988042;28;20039;-91
2023/01/20 20:28:57;;;;;;;35.55;11.65;;;11.00;99.90;;;;;;4975742;28;20595;-93
2023/01/20 20:31:27;;;;;;;29.33;12.00;;;11.10;99.90;;;;;;4955809;29;20421;-92
2023/01/20 20:33:59;;;;;;;42.58;14.15;;;11.10;99.90;;;;;;4954897;28;20078;-94
2023/01/20 20:36:31;;;;;;;30.35;12.35;;;11.20;99.90;;;;;;4961715;28;20031;-93
2023/01/20 20:39:01;;;;;;;33.53;12.80;;;11.30;99.90;;;;;;4960915;28;20066;-91
2023/01/20 20:41:30;;;;;;;35.45;14.25;;;11.30;99.90;;;;;;4959771;28;20039;-91